createdAt,value
2018-02-06T00:01:42.797Z,8.95
2018-02-06T00:04:09.449Z,9.00
2018-02-06T00:06:36.119Z,8.30
2018-02-06T00:09:02.769Z,9.02
2018-02-06T00:11:29.437Z,8.27
2018-02-06T00:13:56.077Z,8.93
2018-02-06T00:16:22.738Z,8.93
2018-02-06T00:18:49.393Z,11.15
2018-02-06T00:21:16.063Z,8.90
2018-02-06T00:23:42.718Z,10.75
2018-02-06T00:26:09.366Z,9.25
2018-02-06T00:28:36.021Z,9.82
2018-02-06T00:31:02.688Z,8.65
2018-02-06T00:33:29.353Z,9.40
2018-02-06T00:35:56.018Z,10.50
2018-02-06T00:49:19.967Z,9.30
2018-02-06T00:51:46.600Z,9.50
2018-02-06T00:54:13.259Z,9.95
2018-02-06T00:56:39.893Z,9.57
2018-02-06T00:59:06.560Z,10.40
2018-02-06T01:01:33.207Z,10.35
2018-02-06T01:03:59.884Z,10.30
2018-02-06T01:06:26.562Z,10.60
2018-02-06T01:08:53.223Z,10.05
2018-02-06T01:11:19.864Z,10.57
2018-02-06T01:13:46.523Z,9.73
2018-02-06T01:16:13.161Z,10.18
2018-02-06T01:18:39.811Z,9.25
2018-02-06T01:21:06.447Z,8.90
2018-02-06T01:23:33.102Z,9.63
2018-02-06T01:25:59.754Z,10.25
2018-02-06T01:28:26.407Z,10.65
2018-02-06T01:30:53.049Z,10.00
2018-02-06T01:33:19.683Z,9.32
2018-02-06T01:35:46.312Z,9.00
2018-02-06T01:38:12.999Z,8.93
2018-02-06T01:40:39.975Z,10.38
2018-02-06T01:43:06.631Z,9.13
2018-02-06T01:45:33.257Z,9.75
2018-02-06T01:47:59.896Z,11.15
2018-02-06T01:50:26.544Z,9.60
2018-02-06T01:52:53.183Z,10.60
2018-02-06T01:55:19.820Z,10.30
2018-02-06T01:57:46.467Z,11.45
2018-02-06T02:00:13.124Z,11.30
2018-02-06T02:02:39.771Z,10.23
2018-02-06T02:05:06.416Z,10.02
2018-02-06T02:07:33.055Z,10.45
2018-02-06T02:09:59.719Z,11.07
2018-02-06T02:12:26.362Z,11.18
2018-02-06T02:14:53.030Z,10.60
2018-02-06T02:17:19.683Z,10.38
2018-02-06T02:19:46.349Z,10.60
2018-02-06T02:22:12.982Z,10.60
2018-02-06T02:24:39.655Z,11.05
2018-02-06T02:27:06.303Z,10.57
2018-02-06T02:29:32.970Z,10.73
2018-02-06T02:31:59.596Z,10.43
2018-02-06T02:34:26.239Z,10.40
2018-02-06T02:36:52.881Z,12.25
2018-02-06T02:39:19.519Z,11.48
2018-02-06T04:39:06.655Z,13.50
2018-02-06T04:41:33.319Z,13.50
2018-02-06T04:43:59.978Z,13.82
2018-02-06T04:46:26.614Z,13.62
2018-02-06T04:48:53.272Z,13.88
2018-02-06T04:51:19.910Z,13.07
2018-02-06T04:53:46.570Z,13.25
2018-02-06T04:56:13.247Z,13.00
2018-02-06T04:58:39.930Z,13.82
2018-02-06T05:01:07.451Z,14.10
2018-02-06T05:03:34.109Z,13.68
2018-02-06T05:06:00.741Z,14.77
2018-02-06T05:08:27.384Z,14.63
2018-02-06T05:10:54.031Z,14.98
2018-02-06T05:13:20.669Z,16.30
2018-02-06T05:15:47.360Z,14.98
2018-02-06T05:18:14.008Z,15.25
2018-02-06T05:20:40.647Z,14.75
2018-02-06T05:23:07.288Z,14.55
2018-02-06T05:25:33.938Z,13.68
2018-02-06T05:28:00.585Z,13.65
2018-02-06T05:30:27.301Z,12.32
2018-02-06T05:32:53.951Z,14.35
2018-02-06T05:35:20.603Z,12.85
2018-02-06T05:37:47.252Z,14.90
2018-02-06T05:40:13.920Z,13.38
2018-02-06T05:42:40.562Z,14.52
2018-02-06T05:45:07.241Z,13.40
2018-02-06T05:47:33.886Z,12.73
2018-02-06T05:50:00.551Z,13.40
2018-02-06T05:52:27.199Z,13.30
2018-02-06T05:54:53.839Z,13.48
2018-02-06T05:57:20.477Z,11.93
2018-02-06T05:59:47.510Z,11.70
2018-02-06T06:02:14.150Z,12.43
2018-02-06T06:04:40.787Z,12.23
2018-02-06T06:07:07.433Z,11.95
2018-02-06T06:09:34.071Z,13.48
2018-02-06T06:12:00.718Z,13.13
2018-02-06T06:14:27.386Z,12.52
2018-02-06T06:16:54.025Z,12.80
2018-02-06T06:19:20.674Z,13.40
2018-02-06T06:21:47.332Z,12.57
2018-02-06T06:24:14.029Z,12.10
2018-02-06T06:26:40.682Z,13.57
2018-02-06T06:29:07.326Z,14.00
2018-02-06T06:31:33.987Z,13.62
2018-02-06T06:34:00.647Z,14.18
2018-02-06T06:36:27.326Z,15.27
2018-02-06T06:38:53.969Z,17.12
2018-02-06T06:41:20.633Z,21.92
2018-02-06T06:43:47.296Z,18.17
2018-02-06T06:46:13.943Z,14.73
2018-02-06T06:48:40.600Z,11.65
2018-02-06T06:51:07.245Z,12.27
2018-02-06T06:53:33.899Z,12.05
2018-02-06T06:56:00.553Z,21.33
2018-02-06T06:58:27.232Z,14.07
2018-02-06T07:00:53.895Z,18.80
2018-02-06T07:03:20.542Z,14.80
2018-02-06T07:05:47.194Z,12.80
2018-02-06T07:08:13.829Z,13.35
2018-02-06T07:10:40.638Z,12.23
2018-02-06T07:13:07.287Z,13.68
2018-02-06T07:15:33.928Z,12.60
2018-02-06T07:18:00.600Z,14.82
2018-02-06T07:20:27.253Z,11.77
2018-02-06T07:22:53.903Z,14.43
2018-02-06T07:25:20.551Z,12.50
2018-02-06T07:27:47.202Z,12.93
2018-02-06T07:30:13.866Z,12.88
2018-02-06T07:32:40.543Z,13.38
2018-02-06T07:35:07.216Z,11.82
2018-02-06T07:37:33.852Z,11.23
2018-02-06T07:40:00.541Z,11.43
2018-02-06T07:42:27.151Z,13.52
2018-02-06T07:44:53.819Z,12.37
2018-02-06T07:47:20.489Z,12.00
2018-02-06T07:49:47.183Z,11.80
2018-02-06T07:52:13.821Z,12.07
2018-02-06T07:54:40.529Z,11.27
2018-02-06T07:57:07.168Z,12.57
2018-02-06T07:59:33.855Z,12.15
2018-02-06T08:02:01.031Z,13.10
2018-02-06T08:04:27.695Z,12.37
2018-02-06T08:06:54.366Z,11.90
2018-02-06T08:09:21.039Z,12.20
2018-02-06T08:11:47.700Z,11.95
2018-02-06T08:14:14.399Z,12.02
2018-02-06T08:16:41.056Z,12.25
2018-02-06T08:19:07.741Z,11.68
2018-02-06T08:21:34.380Z,12.65
2018-02-06T08:24:01.026Z,12.07
2018-02-06T08:26:27.690Z,13.25
2018-02-06T08:28:54.343Z,11.82
2018-02-06T08:31:20.981Z,12.75
2018-02-06T08:33:47.632Z,13.27
2018-02-06T08:36:14.286Z,13.52
2018-02-06T08:38:40.922Z,13.90
2018-02-06T08:41:07.604Z,11.43
2018-02-06T08:43:34.239Z,12.10
2018-02-06T08:46:00.903Z,12.37
2018-02-06T08:48:28.296Z,12.60
2018-02-06T08:50:54.967Z,11.32
2018-02-06T08:53:21.613Z,11.57
2018-02-06T08:55:48.306Z,11.30
2018-02-06T08:58:14.932Z,12.88
2018-02-06T09:00:41.591Z,11.60
2018-02-06T09:03:08.229Z,13.23
2018-02-06T09:05:34.892Z,13.40
2018-02-06T09:08:01.564Z,13.85
2018-02-06T09:10:28.229Z,14.60
2018-02-06T09:12:54.874Z,13.97
2018-02-06T09:15:21.697Z,13.83
2018-02-06T09:17:48.343Z,13.63
2018-02-06T09:20:14.997Z,14.80
2018-02-06T09:22:41.649Z,15.20
2018-02-06T09:25:08.295Z,14.73
2018-02-06T09:27:34.937Z,14.03
2018-02-06T09:30:01.579Z,14.30
2018-02-06T09:32:28.234Z,14.20
2018-02-06T09:34:54.885Z,12.87
2018-02-06T09:37:21.536Z,13.80
2018-02-06T09:39:48.182Z,13.17
2018-02-06T09:42:14.819Z,14.30
2018-02-06T09:44:41.458Z,13.63
2018-02-06T09:47:08.109Z,14.43
2018-02-06T09:49:34.750Z,13.97
2018-02-06T09:52:01.654Z,15.07
2018-02-06T09:54:28.499Z,13.43
2018-02-06T09:56:55.138Z,13.90
2018-02-06T09:59:21.785Z,14.83
2018-02-06T10:01:48.434Z,14.10
2018-02-06T10:04:15.096Z,13.50
2018-02-06T10:06:41.754Z,13.40
2018-02-06T10:09:08.394Z,14.17
2018-02-06T10:11:35.106Z,14.50
2018-02-06T10:14:01.734Z,14.83
2018-02-06T10:16:28.370Z,14.73
2018-02-06T10:18:55.006Z,14.20
2018-02-06T10:21:21.647Z,14.10
2018-02-06T10:23:48.279Z,13.93
2018-02-06T10:26:14.919Z,13.00
2018-02-06T10:28:41.573Z,15.07
2018-02-06T10:31:08.199Z,14.23
2018-02-06T10:33:34.835Z,14.67
2018-02-06T10:36:01.464Z,13.37
2018-02-06T10:38:28.108Z,13.87
2018-02-06T10:40:54.763Z,13.90
2018-02-06T10:43:21.400Z,13.20
2018-02-06T10:45:48.083Z,13.80
2018-02-06T10:48:14.718Z,14.17
2018-02-06T10:50:41.358Z,14.40
2018-02-06T10:53:08.011Z,13.93
2018-02-06T10:55:34.664Z,15.20
2018-02-06T10:58:01.356Z,13.73
2018-02-06T11:00:28.378Z,12.80
2018-02-06T11:02:55.087Z,13.90
2018-02-06T11:05:21.782Z,13.30
2018-02-06T11:07:48.775Z,13.37
2018-02-06T11:10:15.874Z,12.80
2018-02-06T11:12:42.960Z,12.47
2018-02-06T11:15:09.648Z,11.37
2018-02-06T11:17:36.279Z,12.60
2018-02-06T11:20:03.279Z,12.80
2018-02-06T11:22:30.121Z,11.83
2018-02-06T11:24:56.949Z,12.15
2018-02-06T11:27:23.626Z,10.90
2018-02-06T11:29:50.368Z,12.02
2018-02-06T11:32:17.291Z,11.07
2018-02-06T11:34:43.938Z,12.60
2018-02-06T11:37:10.585Z,11.12
2018-02-06T11:39:37.413Z,12.10
2018-02-06T11:42:04.158Z,10.68
2018-02-06T11:44:30.895Z,9.98
2018-02-06T11:46:57.840Z,11.82
2018-02-06T11:49:24.476Z,11.32
2018-02-06T11:51:51.335Z,11.10
2018-02-06T11:54:18.011Z,11.23
2018-02-06T11:56:45.497Z,13.07
2018-02-06T11:59:12.276Z,11.98
2018-02-06T12:01:38.941Z,11.25
2018-02-06T12:04:05.782Z,11.73
2018-02-06T12:06:32.661Z,10.73
2018-02-06T12:08:59.586Z,11.63
2018-02-06T12:11:26.269Z,10.35
2018-02-06T12:13:53.806Z,10.65
2018-02-06T12:16:20.519Z,12.18
2018-02-06T12:18:47.232Z,12.20
2018-02-06T12:21:13.896Z,10.60
2018-02-06T12:23:40.545Z,10.43
2018-02-06T12:26:07.274Z,8.73
2018-02-06T12:28:34.375Z,10.38
2018-02-06T12:31:01.058Z,10.70
2018-02-06T12:33:27.691Z,9.50
2018-02-06T12:35:54.315Z,11.63
2018-02-06T12:38:20.971Z,10.98
2018-02-06T12:40:47.623Z,11.45
2018-02-06T12:43:14.250Z,11.25
2018-02-06T12:45:40.899Z,12.37
2018-02-06T12:48:07.539Z,11.00
2018-02-06T12:50:34.181Z,11.52
2018-02-06T12:53:00.818Z,10.73
2018-02-06T12:55:27.458Z,12.98
2018-02-06T12:57:54.111Z,10.98
2018-02-06T13:00:20.778Z,7.30
2018-02-06T13:05:32.195Z,12.48
2018-02-06T13:07:58.887Z,10.65
2018-02-06T13:10:25.648Z,11.27
2018-02-06T13:12:52.324Z,10.40
2018-02-06T13:15:18.966Z,11.07
2018-02-06T13:17:45.627Z,11.45
2018-02-06T13:20:12.304Z,11.90
2018-02-06T13:22:38.964Z,12.48
2018-02-06T13:25:05.626Z,13.55
2018-02-06T13:27:32.254Z,12.35
2018-02-06T13:29:58.909Z,13.65
2018-02-06T13:32:25.550Z,14.32
2018-02-06T13:34:52.197Z,13.15
2018-02-06T13:37:18.832Z,13.05
2018-02-06T13:39:45.471Z,12.82
2018-02-06T13:42:12.197Z,14.65
2018-02-06T13:44:38.881Z,14.63
2018-02-06T13:47:05.538Z,15.10
2018-02-06T13:49:32.186Z,13.80
2018-02-06T13:51:58.824Z,13.93
2018-02-06T13:54:25.667Z,13.57
2018-02-06T13:56:52.330Z,13.38
2018-02-06T13:59:18.961Z,14.27
2018-02-06T14:01:45.596Z,12.37
2018-02-06T14:04:12.233Z,13.68
2018-02-06T14:06:38.872Z,12.77
2018-02-06T14:09:05.516Z,14.27
2018-02-06T14:11:32.156Z,12.07
2018-02-06T14:13:58.795Z,12.93
2018-02-06T14:16:25.426Z,13.57
2018-02-06T14:18:52.076Z,15.25
2018-02-06T14:21:18.713Z,14.02
2018-02-06T14:23:45.365Z,15.18
2018-02-06T14:26:12.007Z,13.90
2018-02-06T14:28:38.680Z,13.02
2018-02-06T14:31:05.368Z,12.65
2018-02-06T14:33:32.057Z,14.57
2018-02-06T14:35:58.723Z,12.88
2018-02-06T14:38:25.381Z,12.90
2018-02-06T14:40:52.046Z,14.23
2018-02-06T14:43:18.677Z,11.85
2018-02-06T14:45:45.329Z,12.43
2018-02-06T14:48:11.984Z,13.62
2018-02-06T14:50:38.647Z,12.57
2018-02-06T14:53:05.308Z,12.40
2018-02-06T14:55:31.946Z,12.18
2018-02-06T14:57:58.584Z,12.15
2018-02-06T15:00:25.222Z,12.85
2018-02-06T15:02:51.879Z,11.12
2018-02-06T15:05:18.564Z,12.48
2018-02-06T15:07:45.207Z,12.07
2018-02-06T15:10:11.885Z,11.32
2018-02-06T15:12:38.533Z,11.10
2018-02-06T15:15:05.187Z,10.75
2018-02-06T15:17:31.876Z,10.95
2018-02-06T15:19:58.511Z,12.27
2018-02-06T15:22:25.166Z,11.73
2018-02-06T15:24:52.607Z,11.80
2018-02-06T15:27:19.278Z,12.57
2018-02-06T15:29:47.062Z,11.90
2018-02-06T15:32:13.730Z,11.38
2018-02-06T15:34:40.376Z,13.32
2018-02-06T15:37:07.044Z,13.38
2018-02-06T15:39:33.728Z,12.00
2018-02-06T15:42:00.379Z,12.35
2018-02-06T15:44:27.031Z,10.85
2018-02-06T15:46:53.668Z,12.25
2018-02-06T15:49:20.306Z,12.18
2018-02-06T15:51:46.944Z,13.77
2018-02-06T15:54:13.571Z,14.05
2018-02-06T15:56:40.226Z,17.25
2018-02-06T15:59:06.898Z,12.32
2018-02-06T16:01:33.548Z,11.73
2018-02-06T16:04:00.186Z,13.90
2018-02-06T16:06:26.859Z,13.40
2018-02-06T16:08:53.508Z,12.45
2018-02-06T16:11:20.183Z,11.98
2018-02-06T16:13:46.811Z,12.88
2018-02-06T16:16:13.469Z,12.37
2018-02-06T16:18:40.138Z,12.45
2018-02-06T16:21:06.808Z,12.18
2018-02-06T16:23:33.471Z,10.90
2018-02-06T16:26:00.256Z,12.18
2018-02-06T16:28:26.983Z,14.77
2018-02-06T16:30:53.750Z,13.45
2018-02-06T16:33:20.445Z,12.57
2018-02-06T16:35:47.547Z,10.82
2018-02-06T16:38:14.542Z,13.62
2018-02-06T16:40:41.605Z,12.55
2018-02-06T16:43:08.283Z,13.00
2018-02-06T16:45:35.294Z,12.27
2018-02-06T16:48:02.274Z,12.23
2018-02-06T16:50:29.014Z,13.48
2018-02-06T16:52:55.988Z,12.25
2018-02-06T16:55:22.915Z,13.07
2018-02-06T16:57:50.005Z,12.10
2018-02-06T17:00:16.875Z,14.90
2018-02-06T17:02:43.548Z,12.18
2018-02-06T17:05:10.585Z,13.75
2018-02-06T17:07:37.337Z,12.52
2018-02-06T17:10:04.068Z,14.07
2018-02-06T17:12:30.744Z,15.02
2018-02-06T17:14:57.713Z,13.75
2018-02-06T17:17:24.436Z,13.00
2018-02-06T17:19:51.889Z,13.10
2018-02-06T17:22:18.654Z,14.65
2018-02-06T17:24:45.286Z,13.65
2018-02-06T17:27:11.970Z,13.10
2018-02-06T17:29:38.770Z,13.50
2018-02-06T17:32:05.732Z,12.77
2018-02-06T17:34:32.562Z,13.98
2018-02-06T17:36:59.241Z,15.07
2018-02-06T17:39:25.890Z,13.98
2018-02-06T17:41:52.648Z,13.65
2018-02-06T17:44:19.292Z,13.48
2018-02-06T17:46:46.179Z,13.90
2018-02-06T17:49:13.072Z,12.93
2018-02-06T17:51:40.012Z,14.70
2018-02-06T17:54:06.793Z,13.73
2018-02-06T17:56:33.512Z,14.87
2018-02-06T17:59:00.156Z,14.27
2018-02-06T18:01:27.044Z,14.15
2018-02-06T18:03:53.762Z,14.23
2018-02-06T18:06:20.452Z,13.75
2018-02-06T18:08:47.099Z,13.95
2018-02-06T18:11:13.737Z,14.23
2018-02-06T18:13:40.412Z,15.10
2018-02-06T18:16:07.121Z,14.43
2018-02-06T18:18:33.755Z,14.65
2018-02-06T18:21:00.399Z,16.35
2018-02-06T18:23:27.102Z,14.57
2018-02-06T18:25:53.768Z,15.27
2018-02-06T18:28:20.547Z,14.38
2018-02-06T18:30:47.218Z,14.23
2018-02-06T18:33:13.868Z,13.25
2018-02-06T18:35:40.518Z,14.57
2018-02-06T18:38:07.186Z,14.38
2018-02-06T18:40:33.915Z,14.02
2018-02-06T18:43:00.551Z,14.18
2018-02-06T18:45:27.183Z,16.48
2018-02-06T18:47:53.857Z,14.45
2018-02-06T18:50:20.505Z,16.00
2018-02-06T18:52:47.409Z,14.63
2018-02-06T18:55:14.442Z,14.80
2018-02-06T18:57:41.364Z,14.75
2018-02-06T19:00:10.130Z,15.10
2018-02-06T19:02:36.868Z,14.40
2018-02-06T19:05:03.847Z,13.62
2018-02-06T19:07:31.216Z,14.48
2018-02-06T19:09:58.170Z,14.43
2018-02-06T19:12:24.865Z,15.57
2018-02-06T19:14:51.548Z,16.27
2018-02-06T19:17:18.202Z,15.05
2018-02-06T19:19:44.856Z,14.55
2018-02-06T19:22:11.844Z,14.35
2018-02-06T19:24:38.599Z,15.05
2018-02-06T19:27:05.231Z,16.90
2018-02-06T19:29:32.305Z,15.25
2018-02-06T19:32:00.360Z,15.70
2018-02-06T19:34:27.456Z,15.73
2018-02-06T19:36:54.371Z,14.70
2018-02-06T19:39:21.080Z,14.35
2018-02-06T19:41:47.811Z,15.80
2018-02-06T19:44:14.649Z,16.37
2018-02-06T19:46:41.361Z,14.75
2018-02-06T19:49:08.208Z,14.93
2018-02-06T19:51:35.034Z,15.95
2018-02-06T19:54:01.730Z,16.58
2018-02-06T19:56:28.546Z,17.10
2018-02-06T19:58:55.324Z,15.90
2018-02-06T20:01:22.236Z,16.23
2018-02-06T20:03:49.083Z,12.90
2018-02-06T20:06:15.765Z,16.83
2018-02-06T20:08:42.491Z,17.58
2018-02-06T20:11:09.235Z,16.85
2018-02-06T20:13:35.947Z,16.20
2018-02-06T20:16:02.624Z,16.90
2018-02-06T20:18:29.248Z,17.85
2018-02-06T20:20:55.891Z,16.37
2018-02-06T20:23:22.528Z,16.73
2018-02-06T20:25:49.561Z,16.65
2018-02-06T20:28:16.195Z,17.75
2018-02-06T20:30:42.874Z,17.00
2018-02-06T20:33:09.695Z,17.00
2018-02-06T20:35:36.928Z,16.50
2018-02-06T20:38:03.923Z,17.42
2018-02-06T20:40:30.822Z,16.42
2018-02-06T20:42:58.177Z,15.68
2018-02-06T20:45:24.943Z,16.10
2018-02-06T20:47:51.654Z,16.65
2018-02-06T20:50:18.713Z,17.12
2018-02-06T20:52:45.590Z,16.80
2018-02-06T20:55:13.071Z,16.95
2018-02-06T20:57:39.913Z,17.33
2018-02-06T21:00:06.684Z,18.58
2018-02-06T21:02:33.696Z,17.87
2018-02-06T21:05:00.409Z,17.58
2018-02-06T21:07:27.113Z,17.00
2018-02-06T21:09:53.883Z,18.10
2018-02-06T21:12:20.593Z,18.87
2018-02-06T21:14:47.506Z,17.80
2018-02-06T21:17:14.197Z,18.60
2018-02-06T21:19:40.975Z,16.90
2018-02-06T21:22:07.675Z,17.25
2018-02-06T21:24:34.334Z,16.52
2018-02-06T21:27:01.243Z,16.58
2018-02-06T21:29:28.091Z,17.83
2018-02-06T21:31:54.727Z,15.73
2018-02-06T21:34:21.384Z,16.70
2018-02-06T21:36:48.046Z,17.08
2018-02-06T21:39:14.695Z,19.00
2018-02-06T21:41:41.334Z,17.40
2018-02-06T21:44:08.004Z,17.77
2018-02-06T21:46:34.675Z,17.25
2018-02-06T21:49:01.332Z,15.50
2018-02-06T21:51:27.970Z,14.80
2018-02-06T21:53:54.700Z,14.93
2018-02-06T21:56:21.330Z,15.68
2018-02-06T21:58:47.989Z,15.13
2018-02-06T22:01:14.631Z,16.15
2018-02-06T22:03:41.288Z,15.13
2018-02-06T22:06:07.967Z,14.93
2018-02-06T22:08:34.620Z,15.43
2018-02-06T22:11:01.266Z,17.55
2018-02-06T22:13:27.924Z,15.70
2018-02-06T22:15:54.572Z,17.35
2018-02-06T22:18:21.244Z,15.50
2018-02-06T22:20:47.896Z,15.02
2018-02-06T22:23:14.532Z,15.27
2018-02-06T22:25:41.177Z,16.25
2018-02-06T22:28:07.845Z,14.60
2018-02-06T22:30:34.484Z,17.50
2018-02-06T22:33:01.267Z,14.35
2018-02-06T22:35:27.950Z,15.57
2018-02-06T22:37:54.588Z,15.20
2018-02-06T22:40:21.251Z,15.43
2018-02-06T22:42:47.914Z,15.30
2018-02-06T22:45:14.573Z,14.35
2018-02-06T22:47:41.212Z,14.65
2018-02-06T22:50:07.940Z,14.48
2018-02-06T22:52:34.619Z,15.50
2018-02-06T22:55:01.280Z,18.20
2018-02-06T22:57:27.931Z,23.05
2018-02-06T22:59:54.597Z,16.15
2018-02-06T23:02:21.262Z,17.80
2018-02-06T23:04:47.947Z,16.30
2018-02-06T23:07:14.603Z,21.40
2018-02-06T23:09:41.252Z,43.00
2018-02-06T23:12:07.892Z,16.70
2018-02-06T23:14:34.533Z,17.48
2018-02-06T23:17:01.173Z,18.58
2018-02-06T23:19:27.835Z,15.55
2018-02-06T23:21:54.519Z,14.35
2018-02-06T23:24:21.171Z,18.73
2018-02-06T23:26:47.828Z,16.60
2018-02-06T23:29:14.474Z,27.17
2018-02-06T23:31:41.112Z,39.92
2018-02-06T23:34:07.765Z,16.80
2018-02-06T23:36:34.402Z,15.80
2018-02-06T23:39:01.103Z,15.70
2018-02-06T23:41:27.760Z,14.70
2018-02-06T23:43:54.418Z,16.95
2018-02-06T23:46:21.085Z,15.85
2018-02-06T23:48:47.765Z,16.87
2018-02-06T23:51:14.420Z,15.90
2018-02-06T23:53:41.058Z,15.75
2018-02-06T23:56:07.715Z,15.50
2018-02-06T23:58:34.355Z,15.15
